sensor_id;sensor_type;location;lat;lon;timestamp;pressure;altitude;pressure_sealevel;temperature;humidity
39341;BME280;25059;52.132;21.062;2023-02-11T00:02:56;101694.06;;;1.40;100.00
39341;BME280;25059;52.132;21.062;2023-02-11T00:05:40;101698.47;;;1.44;100.00
39341;BME280;25059;52.132;21.062;2023-02-11T00:08:25;101688.00;;;1.40;100.00
39341;BME280;25059;52.132;21.062;2023-02-11T00:11:12;101694.88;;;1.38;100.00
39341;BME280;25059;52.132;21.062;2023-02-11T00:14:00;101680.22;;;1.40;100.00
39341;BME280;25059;52.132;21.062;2023-02-11T00:16:45;101677.66;;;1.41;100.00
39341;BME280;25059;52.132;21.062;2023-02-11T00:19:29;101685.56;;;1.47;100.00
39341;BME280;25059;52.132;21.062;2023-02-11T00:22:14;101677.88;;;1.52;100.00
39341;BME280;25059;52.132;21.062;2023-02-11T00:24:58;101664.88;;;1.49;100.00
39341;BME280;25059;52.132;21.062;2023-02-11T00:27:43;101658.81;;;1.48;100.00
39341;BME280;25059;52.132;21.062;2023-02-11T00:30:28;101663.19;;;1.51;100.00
39341;BME280;25059;52.132;21.062;2023-02-11T00:33:12;101651.91;;;1.49;100.00
39341;BME280;25059;52.132;21.062;2023-02-11T00:35:57;101657.97;;;1.49;100.00
39341;BME280;25059;52.132;21.062;2023-02-11T00:38:42;101659.75;;;1.52;100.00
39341;BME280;25059;52.132;21.062;2023-02-11T00:41:28;101654.53;;;1.50;100.00
39341;BME280;25059;52.132;21.062;2023-02-11T00:44:13;101645.81;;;1.47;100.00
39341;BME280;25059;52.132;21.062;2023-02-11T00:46:58;101638.94;;;1.47;100.00
39341;BME280;25059;52.132;21.062;2023-02-11T00:49:42;101634.59;;;1.46;100.00
39341;BME280;25059;52.132;21.062;2023-02-11T00:52:27;101618.22;;;1.49;100.00
39341;BME280;25059;52.132;21.062;2023-02-11T00:55:12;101608.75;;;1.51;100.00
39341;BME280;25059;52.132;21.062;2023-02-11T00:57:56;101601.81;;;1.48;100.00
39341;BME280;25059;52.132;21.062;2023-02-11T01:00:42;101584.47;;;1.46;100.00
39341;BME280;25059;52.132;21.062;2023-02-11T01:03:28;101582.81;;;1.49;100.00
39341;BME280;25059;52.132;21.062;2023-02-11T01:06:13;101578.50;;;1.50;100.00
39341;BME280;25059;52.132;21.062;2023-02-11T01:08:57;101568.00;;;1.42;100.00
39341;BME280;25059;52.132;21.062;2023-02-11T01:11:42;101566.28;;;1.41;100.00
39341;BME280;25059;52.132;21.062;2023-02-11T01:14:27;101551.59;;;1.42;100.00
39341;BME280;25059;52.132;21.062;2023-02-11T01:17:11;101538.59;;;1.39;100.00
39341;BME280;25059;52.132;21.062;2023-02-11T01:19:56;101534.25;;;1.38;100.00
39341;BME280;25059;52.132;21.062;2023-02-11T01:22:40;101524.81;;;1.41;100.00
39341;BME280;25059;52.132;21.062;2023-02-11T01:25:25;101525.59;;;1.37;100.00
39341;BME280;25059;52.132;21.062;2023-02-11T01:28:17;101505.69;;;1.35;100.00
39341;BME280;25059;52.132;21.062;2023-02-11T01:31:03;101503.16;;;1.38;100.00
39341;BME280;25059;52.132;21.062;2023-02-11T01:33:47;101492.78;;;1.36;100.00
39341;BME280;25059;52.132;21.062;2023-02-11T01:36:32;101490.13;;;1.33;100.00
39341;BME280;25059;52.132;21.062;2023-02-11T01:39:17;101485.78;;;1.31;100.00
39341;BME280;25059;52.132;21.062;2023-02-11T01:42:02;101474.66;;;1.38;100.00
39341;BME280;25059;52.132;21.062;2023-02-11T01:44:49;101463.38;;;1.34;100.00
39341;BME280;25059;52.132;21.062;2023-02-11T01:47:35;101461.72;;;1.38;100.00
39341;BME280;25059;52.132;21.062;2023-02-11T01:50:19;101473.81;;;1.39;100.00
39341;BME280;25059;52.132;21.062;2023-02-11T01:53:04;101478.22;;;1.44;100.00
39341;BME280;25059;52.132;21.062;2023-02-11T01:56:09;101489.50;;;1.46;100.00
39341;BME280;25059;52.132;21.062;2023-02-11T01:59:23;101485.31;;;1.54;100.00
39341;BME280;25059;52.132;21.062;2023-02-11T02:02:11;101485.44;;;1.62;100.00
39341;BME280;25059;52.132;21.062;2023-02-11T02:05:13;101470.66;;;1.56;100.00
39341;BME280;25059;52.132;21.062;2023-02-11T02:10:50;101446.47;;;1.56;100.00
39341;BME280;25059;52.132;21.062;2023-02-11T02:13:37;101448.25;;;1.60;100.00
39341;BME280;25059;52.132;21.062;2023-02-11T02:16:28;101418.09;;;1.65;100.00
39341;BME280;25059;52.132;21.062;2023-02-11T02:19:30;101425.06;;;1.69;100.00
39341;BME280;25059;52.132;21.062;2023-02-11T02:37:30;101383.41;;;1.55;100.00
39341;BME280;25059;52.132;21.062;2023-02-11T02:40:22;101381.75;;;1.60;100.00
39341;BME280;25059;52.132;21.062;2023-02-11T02:43:09;101381.66;;;1.54;100.00
39341;BME280;25059;52.132;21.062;2023-02-11T02:46:10;101368.78;;;1.60;100.00
39341;BME280;25059;52.132;21.062;2023-02-11T02:48:55;101367.03;;;1.58;100.00
39341;BME280;25059;52.132;21.062;2023-02-11T02:52:02;101356.56;;;1.50;100.00
39341;BME280;25059;52.132;21.062;2023-02-11T03:01:07;101360.16;;;1.61;100.00
39341;BME280;25059;52.132;21.062;2023-02-11T03:07:12;101355.03;;;1.66;100.00
39341;BME280;25059;52.132;21.062;2023-02-11T03:12:48;101346.47;;;1.72;100.00
39341;BME280;25059;52.132;21.062;2023-02-11T03:15:37;101339.50;;;1.68;100.00
39341;BME280;25059;52.132;21.062;2023-02-11T03:18:26;101347.31;;;1.69;100.00
39341;BME280;25059;52.132;21.062;2023-02-11T03:21:13;101344.72;;;1.69;100.00
39341;BME280;25059;52.132;21.062;2023-02-11T03:24:02;101331.78;;;1.72;100.00
39341;BME280;25059;52.132;21.062;2023-02-11T03:26:52;101323.19;;;1.75;100.00
39341;BME280;25059;52.132;21.062;2023-02-11T03:29:45;101324.03;;;1.74;100.00
39341;BME280;25059;52.132;21.062;2023-02-11T03:32:39;101320.56;;;1.72;100.00
39341;BME280;25059;52.132;21.062;2023-02-11T03:35:45;101306.72;;;1.70;100.00
39341;BME280;25059;52.132;21.062;2023-02-11T03:38:37;101310.19;;;1.72;100.00
39341;BME280;25059;52.132;21.062;2023-02-11T03:41:25;101296.25;;;1.64;100.00
39341;BME280;25059;52.132;21.062;2023-02-11T03:44:13;101303.19;;;1.65;100.00
39341;BME280;25059;52.132;21.062;2023-02-11T03:47:00;101290.25;;;1.66;100.00
39341;BME280;25059;52.132;21.062;2023-02-11T03:49:48;101283.31;;;1.65;100.00
39341;BME280;25059;52.132;21.062;2023-02-11T03:52:35;101293.78;;;1.73;100.00
39341;BME280;25059;52.132;21.062;2023-02-11T03:55:22;101275.63;;;1.71;100.00
39341;BME280;25059;52.132;21.062;2023-02-11T03:58:09;101267.75;;;1.64;100.00
39341;BME280;25059;52.132;21.062;2023-02-11T04:00:54;101276.47;;;1.69;100.00
39341;BME280;25059;52.132;21.062;2023-02-11T04:03:38;101279.91;;;1.68;100.00
39341;BME280;25059;52.132;21.062;2023-02-11T04:06:23;101273.78;;;1.63;100.00
39341;BME280;25059;52.132;21.062;2023-02-11T04:09:08;101254.00;;;1.68;100.00
39341;BME280;25059;52.132;21.062;2023-02-11T04:11:53;101241.91;;;1.70;100.00
39341;BME280;25059;52.132;21.062;2023-02-11T04:14:37;101233.25;;;1.68;100.00
39341;BME280;25059;52.132;21.062;2023-02-11T04:17:22;101217.69;;;1.68;100.00
39341;BME280;25059;52.132;21.062;2023-02-11T04:20:07;101215.88;;;1.59;100.00
39341;BME280;25059;52.132;21.062;2023-02-11T04:22:53;101190.81;;;1.58;100.00
39341;BME280;25059;52.132;21.062;2023-02-11T04:25:37;101197.59;;;1.47;100.00
39341;BME280;25059;52.132;21.062;2023-02-11T04:28:22;101214.84;;;1.45;100.00
39341;BME280;25059;52.132;21.062;2023-02-11T04:31:06;101208.88;;;1.52;100.00
39341;BME280;25059;52.132;21.062;2023-02-11T04:33:51;101204.56;;;1.51;100.00
39341;BME280;25059;52.132;21.062;2023-02-11T04:36:36;101199.34;;;1.49;100.00
39341;BME280;25059;52.132;21.062;2023-02-11T04:39:20;101186.34;;;1.45;100.00
39341;BME280;25059;52.132;21.062;2023-02-11T04:42:05;101177.75;;;1.47;100.00
39341;BME280;25059;52.132;21.062;2023-02-11T04:44:50;101183.75;;;1.45;100.00
39341;BME280;25059;52.132;21.062;2023-02-11T04:47:34;101172.41;;;1.35;100.00
39341;BME280;25059;52.132;21.062;2023-02-11T04:50:20;101166.25;;;1.25;100.00
39341;BME280;25059;52.132;21.062;2023-02-11T04:53:05;101153.34;;;1.27;100.00
39341;BME280;25059;52.132;21.062;2023-02-11T04:55:50;101148.94;;;1.20;100.00
39341;BME280;25059;52.132;21.062;2023-02-11T04:58:35;101142.09;;;1.26;100.00
39341;BME280;25059;52.132;21.062;2023-02-11T05:01:20;101149.94;;;1.33;100.00
39341;BME280;25059;52.132;21.062;2023-02-11T05:04:05;101132.69;;;1.35;100.00
39341;BME280;25059;52.132;21.062;2023-02-11T05:06:49;101124.94;;;1.36;100.00
39341;BME280;25059;52.132;21.062;2023-02-11T05:09:34;101126.66;;;1.34;100.00
39341;BME280;25059;52.132;21.062;2023-02-11T05:12:19;101120.75;;;1.47;100.00
39341;BME280;25059;52.132;21.062;2023-02-11T05:15:03;101116.44;;;1.48;100.00
39341;BME280;25059;52.132;21.062;2023-02-11T05:17:48;101089.66;;;1.47;100.00
39341;BME280;25059;52.132;21.062;2023-02-11T05:20:33;101093.97;;;1.47;100.00
39341;BME280;25059;52.132;21.062;2023-02-11T05:23:17;101101.75;;;1.48;100.00
39341;BME280;25059;52.132;21.062;2023-02-11T05:26:02;101097.41;;;1.46;100.00
39341;BME280;25059;52.132;21.062;2023-02-11T05:28:47;101074.16;;;1.52;100.00
39341;BME280;25059;52.132;21.062;2023-02-11T05:31:32;101082.69;;;1.42;100.00
39341;BME280;25059;52.132;21.062;2023-02-11T05:34:16;101062.88;;;1.47;100.00
39341;BME280;25059;52.132;21.062;2023-02-11T05:37:01;101075.63;;;1.27;100.00
39341;BME280;25059;52.132;21.062;2023-02-11T05:39:45;101073.03;;;1.25;100.00
39341;BME280;25059;52.132;21.062;2023-02-11T05:42:30;101075.75;;;1.38;100.00
39341;BME280;25059;52.132;21.062;2023-02-11T05:45:14;101085.28;;;1.40;100.00
39341;BME280;25059;52.132;21.062;2023-02-11T05:47:59;101079.25;;;1.43;100.00
39341;BME280;25059;52.132;21.062;2023-02-11T05:50:44;101070.59;;;1.42;100.00
39341;BME280;25059;52.132;21.062;2023-02-11T05:53:28;101074.13;;;1.47;100.00
39341;BME280;25059;52.132;21.062;2023-02-11T05:56:13;101075.03;;;1.52;100.00
39341;BME280;25059;52.132;21.062;2023-02-11T05:58:58;101067.28;;;1.55;100.00
39341;BME280;25059;52.132;21.062;2023-02-11T06:01:43;101056.09;;;1.59;100.00
39341;BME280;25059;52.132;21.062;2023-02-11T06:04:27;101049.25;;;1.68;100.00
39341;BME280;25059;52.132;21.062;2023-02-11T06:07:12;101050.97;;;1.69;100.00
39341;BME280;25059;52.132;21.062;2023-02-11T06:09:57;101043.22;;;1.70;100.00
39341;BME280;25059;52.132;21.062;2023-02-11T06:12:42;101058.78;;;1.73;100.00
39341;BME280;25059;52.132;21.062;2023-02-11T06:15:27;101039.78;;;1.73;100.00
39341;BME280;25059;52.132;21.062;2023-02-11T06:18:12;101041.53;;;1.77;100.00
39341;BME280;25059;52.132;21.062;2023-02-11T06:20:56;101036.38;;;1.78;100.00
39341;BME280;25059;52.132;21.062;2023-02-11T06:23:41;101038.97;;;1.80;100.00
39341;BME280;25059;52.132;21.062;2023-02-11T06:26:26;101034.69;;;1.85;100.00
39341;BME280;25059;52.132;21.062;2023-02-11T06:29:11;101045.09;;;1.88;100.00
39341;BME280;25059;52.132;21.062;2023-02-11T06:31:56;101038.19;;;1.88;100.00
39341;BME280;25059;52.132;21.062;2023-02-11T06:34:41;101006.22;;;1.91;100.00
39341;BME280;25059;52.132;21.062;2023-02-11T06:37:25;101023.50;;;1.90;100.00
39341;BME280;25059;52.132;21.062;2023-02-11T06:40:12;101020.91;;;1.90;100.00
39341;BME280;25059;52.132;21.062;2023-02-11T06:42:56;101015.72;;;1.89;100.00
39341;BME280;25059;52.132;21.062;2023-02-11T06:45:41;100988.06;;;1.88;100.00
39341;BME280;25059;52.132;21.062;2023-02-11T06:48:25;101001.91;;;1.93;100.00
39341;BME280;25059;52.132;21.062;2023-02-11T06:51:11;100995.91;;;1.99;100.00
39341;BME280;25059;52.132;21.062;2023-02-11T06:53:56;101003.72;;;2.05;100.00
39341;BME280;25059;52.132;21.062;2023-02-11T06:56:41;100999.47;;;2.14;100.00
39341;BME280;25059;52.132;21.062;2023-02-11T06:59:26;101015.91;;;2.18;100.00
39341;BME280;25059;52.132;21.062;2023-02-11T07:02:11;100989.09;;;2.16;100.00
39341;BME280;25059;52.132;21.062;2023-02-11T07:04:55;101002.06;;;2.17;100.00
39341;BME280;25059;52.132;21.062;2023-02-11T07:07:40;100969.25;;;2.25;100.00
39341;BME280;25059;52.132;21.062;2023-02-11T07:10:24;100977.00;;;2.21;100.00
39341;BME280;25059;52.132;21.062;2023-02-11T07:13:09;100972.69;;;2.21;100.00
39341;BME280;25059;52.132;21.062;2023-02-11T07:15:54;100967.44;;;2.11;100.00
39341;BME280;25059;52.132;21.062;2023-02-11T07:18:39;100980.38;;;2.05;100.00
39341;BME280;25059;52.132;21.062;2023-02-11T07:21:24;100969.97;;;1.99;100.00
39341;BME280;25059;52.132;21.062;2023-02-11T07:24:09;100981.28;;;2.08;100.00
39341;BME280;25059;52.132;21.062;2023-02-11T07:26:56;100980.38;;;2.03;100.00
39341;BME280;25059;52.132;21.062;2023-02-11T07:29:41;100985.50;;;1.92;100.00
39341;BME280;25059;52.132;21.062;2023-02-11T07:32:25;100990.66;;;1.89;100.00
39341;BME280;25059;52.132;21.062;2023-02-11T07:35:10;100999.28;;;1.85;100.00
39341;BME280;25059;52.132;21.062;2023-02-11T07:37:55;100995.81;;;1.83;100.00
39341;BME280;25059;52.132;21.062;2023-02-11T07:40:40;100992.34;;;1.83;100.00
39341;BME280;25059;52.132;21.062;2023-02-11T07:43:24;100970.69;;;1.75;100.00
39341;BME280;25059;52.132;21.062;2023-02-11T07:46:13;100994.81;;;1.66;100.00
39341;BME280;25059;52.132;21.062;2023-02-11T07:48:59;100971.44;;;1.60;100.00
39341;BME280;25059;52.132;21.062;2023-02-11T07:51:44;100976.63;;;1.58;100.00
39341;BME280;25059;52.132;21.062;2023-02-11T07:54:32;100973.06;;;1.46;100.00
39341;BME280;25059;52.132;21.062;2023-02-11T07:57:16;100980.81;;;1.41;100.00
39341;BME280;25059;52.132;21.062;2023-02-11T08:00:02;100985.91;;;1.34;100.00
39341;BME280;25059;52.132;21.062;2023-02-11T08:02:51;100965.22;;;1.35;100.00
39341;BME280;25059;52.132;21.062;2023-02-11T08:05:37;100969.56;;;1.39;100.00
39341;BME280;25059;52.132;21.062;2023-02-11T08:08:25;100966.16;;;1.45;100.00
39341;BME280;25059;52.132;21.062;2023-02-11T08:11:13;100960.97;;;1.45;100.00
39341;BME280;25059;52.132;21.062;2023-02-11T08:14:00;100975.56;;;1.35;100.00
39341;BME280;25059;52.132;21.062;2023-02-11T08:16:49;100950.44;;;1.25;100.00
39341;BME280;25059;52.132;21.062;2023-02-11T08:19:38;100953.84;;;1.18;100.00
39341;BME280;25059;52.132;21.062;2023-02-11T08:22:22;100955.41;;;1.01;100.00
39341;BME280;25059;52.132;21.062;2023-02-11T08:25:07;100947.63;;;1.01;100.00
39341;BME280;25059;52.132;21.062;2023-02-11T08:27:51;100964.88;;;1.00;100.00
39341;BME280;25059;52.132;21.062;2023-02-11T08:30:36;100949.31;;;0.95;100.00
39341;BME280;25059;52.132;21.062;2023-02-11T08:33:21;100951.03;;;0.93;100.00
39341;BME280;25059;52.132;21.062;2023-02-11T08:36:08;100951.06;;;0.98;100.00
39341;BME280;25059;52.132;21.062;2023-02-11T08:38:55;100938.91;;;0.91;100.00
39341;BME280;25059;52.132;21.062;2023-02-11T08:41:40;100939.75;;;0.90;100.00
39341;BME280;25059;52.132;21.062;2023-02-11T08:44:29;100943.16;;;0.84;100.00
39341;BME280;25059;52.132;21.062;2023-02-11T08:47:14;100931.06;;;0.83;100.00
39341;BME280;25059;52.132;21.062;2023-02-11T08:49:58;100926.75;;;0.81;100.00
39341;BME280;25059;52.132;21.062;2023-02-11T08:52:43;100924.16;;;0.81;100.00
39341;BME280;25059;52.132;21.062;2023-02-11T08:55:28;100931.91;;;0.79;100.00
39341;BME280;25059;52.132;21.062;2023-02-11T08:58:18;100914.72;;;0.86;100.00
39341;BME280;25059;52.132;21.062;2023-02-11T09:01:09;100898.44;;;0.99;100.00
39341;BME280;25059;52.132;21.062;2023-02-11T09:03:54;100882.84;;;0.93;100.00
39341;BME280;25059;52.132;21.062;2023-02-11T09:06:40;100883.81;;;1.03;100.00
39341;BME280;25059;52.132;21.062;2023-02-11T09:09:25;100880.47;;;1.16;100.00
39341;BME280;25059;52.132;21.062;2023-02-11T09:12:10;100887.31;;;1.12;100.00
39341;BME280;25059;52.132;21.062;2023-02-11T09:14:55;100875.25;;;1.14;100.00
39341;BME280;25059;52.132;21.062;2023-02-11T09:17:40;100858.03;;;1.19;100.00
39341;BME280;25059;52.132;21.062;2023-02-11T09:20:26;100858.91;;;1.21;100.00
39341;BME280;25059;52.132;21.062;2023-02-11T09:23:10;100846.84;;;1.22;100.00
39341;BME280;25059;52.132;21.062;2023-02-11T09:25:56;100853.78;;;1.27;100.00
39341;BME280;25059;52.132;21.062;2023-02-11T09:28:40;100855.53;;;1.33;100.00
39341;BME280;25059;52.132;21.062;2023-02-11T09:31:29;100860.75;;;1.39;100.00
39341;BME280;25059;52.132;21.062;2023-02-11T09:34:14;100864.25;;;1.46;100.00
39341;BME280;25059;52.132;21.062;2023-02-11T09:36:59;100870.31;;;1.48;100.00
39341;BME280;25059;52.132;21.062;2023-02-11T09:39:44;100887.63;;;1.53;100.00
39341;BME280;25059;52.132;21.062;2023-02-11T09:42:47;100876.41;;;1.53;100.00
39341;BME280;25059;52.132;21.062;2023-02-11T09:45:34;100884.16;;;1.51;100.00
39341;BME280;25059;52.132;21.062;2023-02-11T09:48:22;100894.53;;;1.54;100.00
39341;BME280;25059;52.132;21.062;2023-02-11T09:51:18;100891.97;;;1.56;100.00
39341;BME280;25059;52.132;21.062;2023-02-11T09:54:24;100898.91;;;1.60;100.00
39341;BME280;25059;52.132;21.062;2023-02-11T09:57:10;100907.53;;;1.60;100.00
39341;BME280;25059;52.132;21.062;2023-02-11T09:59:55;100891.13;;;1.58;100.00
39341;BME280;25059;52.132;21.062;2023-02-11T10:15:41;100841.00;;;1.53;100.00
39341;BME280;25059;52.132;21.062;2023-02-11T10:18:54;100823.75;;;1.58;100.00
39341;BME280;25059;52.132;21.062;2023-02-11T10:21:52;100837.59;;;1.64;100.00
39341;BME280;25059;52.132;21.062;2023-02-11T10:24:38;100862.59;;;1.57;100.00
39341;BME280;25059;52.132;21.062;2023-02-11T10:27:31;100851.38;;;1.56;100.00
39341;BME280;25059;52.132;21.062;2023-02-11T10:30:19;100847.94;;;1.57;100.00
39341;BME280;25059;52.132;21.062;2023-02-11T10:36:18;100830.66;;;1.56;100.00
39341;BME280;25059;52.132;21.062;2023-02-11T10:41:59;100801.31;;;1.62;100.00
39341;BME280;25059;52.132;21.062;2023-02-11T10:44:56;100803.03;;;1.58;100.00
39341;BME280;25059;52.132;21.062;2023-02-11T10:47:42;100794.41;;;1.61;100.00
39341;BME280;25059;52.132;21.062;2023-02-11T10:50:30;100795.25;;;1.60;100.00
39341;BME280;25059;52.132;21.062;2023-02-11T10:53:19;100798.69;;;1.57;100.00
39341;BME280;25059;52.132;21.062;2023-02-11T10:56:06;100794.41;;;1.61;100.00
39341;BME280;25059;52.132;21.062;2023-02-11T10:58:57;100785.78;;;1.65;100.00
39341;BME280;25059;52.132;21.062;2023-02-11T11:01:46;100771.97;;;1.71;100.00
39341;BME280;25059;52.132;21.062;2023-02-11T11:04:33;100758.16;;;1.70;100.00
39341;BME280;25059;52.132;21.062;2023-02-11T11:07:25;100766.78;;;1.68;100.00
39341;BME280;25059;52.132;21.062;2023-02-11T11:10:39;100764.19;;;1.71;100.00
39341;BME280;25059;52.132;21.062;2023-02-11T11:13:37;100756.44;;;1.74;100.00
39341;BME280;25059;52.132;21.062;2023-02-11T11:16:37;100752.13;;;1.77;100.00
39341;BME280;25059;52.132;21.062;2023-02-11T11:19:23;100753.00;;;1.81;100.00
39341;BME280;25059;52.132;21.062;2023-02-11T11:22:19;100764.25;;;1.86;100.00
39341;BME280;25059;52.132;21.062;2023-02-11T11:25:04;100781.53;;;1.84;100.00
39341;BME280;25059;52.132;21.062;2023-02-11T11:27:50;100779.81;;;1.87;100.00
39341;BME280;25059;52.132;21.062;2023-02-11T11:30:40;100797.97;;;1.93;100.00
39341;BME280;25059;52.132;21.062;2023-02-11T11:33:29;100809.22;;;1.99;100.00
39341;BME280;25059;52.132;21.062;2023-02-11T11:36:19;100795.41;;;1.97;100.00
39341;BME280;25059;52.132;21.062;2023-02-11T11:39:30;100791.94;;;2.02;100.00
39341;BME280;25059;52.132;21.062;2023-02-11T11:42:27;100813.56;;;2.01;100.00
39341;BME280;25059;52.132;21.062;2023-02-11T11:51:04;100780.72;;;2.08;100.00
39341;BME280;25059;52.132;21.062;2023-02-11T11:53:52;100777.25;;;2.01;100.00
39341;BME280;25059;52.132;21.062;2023-02-11T11:56:49;100759.97;;;2.06;100.00
39341;BME280;25059;52.132;21.062;2023-02-11T11:59:34;100773.81;;;2.13;100.00
39341;BME280;25059;52.132;21.062;2023-02-11T12:05:24;100767.78;;;2.17;100.00
39341;BME280;25059;52.132;21.062;2023-02-11T12:14:11;100752.25;;;2.24;100.00
39341;BME280;25059;52.132;21.062;2023-02-11T12:17:05;100763.47;;;2.28;100.00
39341;BME280;25059;52.132;21.062;2023-02-11T12:20:18;100747.06;;;2.32;100.00
39341;BME280;25059;52.132;21.062;2023-02-11T12:26:18;100749.66;;;2.38;100.00
39341;BME280;25059;52.132;21.062;2023-02-11T12:34:45;100746.19;;;2.48;100.00
39341;BME280;25059;52.132;21.062;2023-02-11T12:40:44;100745.34;;;2.60;100.00
39341;BME280;25059;52.132;21.062;2023-02-11T12:55:21;100741.84;;;2.96;100.00
39341;BME280;25059;52.132;21.062;2023-02-11T12:58:14;100733.19;;;2.97;100.00
39341;BME280;25059;52.132;21.062;2023-02-11T13:01:09;100727.13;;;3.01;100.00
39341;BME280;25059;52.132;21.062;2023-02-11T13:04:07;100719.31;;;3.09;100.00
39341;BME280;25059;52.132;21.062;2023-02-11T13:06:56;100719.31;;;3.10;100.00
39341;BME280;25059;52.132;21.062;2023-02-11T13:09:44;100726.22;;;3.13;100.00
39341;BME280;25059;52.132;21.062;2023-02-11T13:12:32;100727.06;;;3.18;100.00
39341;BME280;25059;52.132;21.062;2023-02-11T13:15:42;100720.13;;;3.23;100.00
39341;BME280;25059;52.132;21.062;2023-02-11T13:18:43;100727.06;;;3.21;100.00
39341;BME280;25059;52.132;21.062;2023-02-11T13:30:42;100706.22;;;3.36;100.00
39341;BME280;25059;52.132;21.062;2023-02-11T13:33:35;100726.13;;;3.39;100.00
39341;BME280;25059;52.132;21.062;2023-02-11T13:36:23;100723.50;;;3.46;100.00
39341;BME280;25059;52.132;21.062;2023-02-11T13:39:19;100735.63;;;3.47;100.00
39341;BME280;25059;52.132;21.062;2023-02-11T13:42:05;100740.81;;;3.47;100.00
39341;BME280;25059;52.132;21.062;2023-02-11T13:44:49;100712.25;;;3.43;100.00
39341;BME280;25059;52.132;21.062;2023-02-11T13:47:35;100711.44;;;3.33;100.00
39341;BME280;25059;52.132;21.062;2023-02-11T13:50:22;100713.16;;;3.33;100.00
39341;BME280;25059;52.132;21.062;2023-02-11T13:53:08;100691.53;;;3.26;100.00
39341;BME280;25059;52.132;21.062;2023-02-11T13:56:06;100745.25;;;3.21;100.00
39341;BME280;25059;52.132;21.062;2023-02-11T13:58:51;100744.41;;;3.14;100.00
39341;BME280;25059;52.132;21.062;2023-02-11T14:14:19;100708.88;;;3.19;100.00
39341;BME280;25059;52.132;21.062;2023-02-11T14:19:52;100711.47;;;3.18;100.00
39341;BME280;25059;52.132;21.062;2023-02-11T14:22:43;100720.16;;;3.17;100.00
39341;BME280;25059;52.132;21.062;2023-02-11T14:25:29;100748.72;;;3.18;100.00
39341;BME280;25059;52.132;21.062;2023-02-11T14:28:22;100745.22;;;3.29;100.00
39341;BME280;25059;52.132;21.062;2023-02-11T14:31:11;100751.28;;;3.29;100.00
39341;BME280;25059;52.132;21.062;2023-02-11T14:36:57;100724.47;;;3.24;100.00
39341;BME280;25059;52.132;21.062;2023-02-11T14:42:29;100720.13;;;3.26;100.00
39341;BME280;25059;52.132;21.062;2023-02-11T14:45:19;100715.78;;;3.28;100.00
39341;BME280;25059;52.132;21.062;2023-02-11T14:48:07;100727.03;;;3.30;100.00
39341;BME280;25059;52.132;21.062;2023-02-11T14:51:02;100770.34;;;3.31;100.00
39341;BME280;25059;52.132;21.062;2023-02-11T14:53:49;100759.06;;;3.31;100.00
39341;BME280;25059;52.132;21.062;2023-02-11T14:56:35;100736.56;;;3.33;100.00
39341;BME280;25059;52.132;21.062;2023-02-11T14:59:21;100748.69;;;3.32;100.00
39341;BME280;25059;52.132;21.062;2023-02-11T15:02:21;100779.84;;;3.31;100.00
39341;BME280;25059;52.132;21.062;2023-02-11T15:05:26;100753.00;;;3.30;100.00
39341;BME280;25059;52.132;21.062;2023-02-11T15:08:13;100754.75;;;3.27;100.00
39341;BME280;25059;52.132;21.062;2023-02-11T15:11:00;100758.22;;;3.26;100.00
39341;BME280;25059;52.132;21.062;2023-02-11T15:13:47;100771.22;;;3.24;100.00
39341;BME280;25059;52.132;21.062;2023-02-11T15:16:33;100766.91;;;3.20;100.00
39341;BME280;25059;52.132;21.062;2023-02-11T15:22:07;100759.09;;;3.21;100.00
39341;BME280;25059;52.132;21.062;2023-02-11T15:25:01;100768.63;;;3.21;100.00
39341;BME280;25059;52.132;21.062;2023-02-11T15:27:49;100768.63;;;3.24;100.00
39341;BME280;25059;52.132;21.062;2023-02-11T15:30:34;100776.41;;;3.22;100.00
39341;BME280;25059;52.132;21.062;2023-02-11T15:33:21;100786.81;;;3.27;100.00
39341;BME280;25059;52.132;21.062;2023-02-11T15:36:10;100816.25;;;3.23;100.00
39341;BME280;25059;52.132;21.062;2023-02-11T15:42:24;100773.81;;;3.19;100.00
39341;BME280;25059;52.132;21.062;2023-02-11T15:45:20;100770.38;;;3.16;100.00
39341;BME280;25059;52.132;21.062;2023-02-11T15:50:57;100792.88;;;3.20;100.00
39341;BME280;25059;52.132;21.062;2023-02-11T15:53:48;100798.06;;;3.20;100.00
39341;BME280;25059;52.132;21.062;2023-02-11T15:56:38;100782.50;;;3.17;100.00
39341;BME280;25059;52.132;21.062;2023-02-11T15:59:32;100785.09;;;3.14;100.00
39341;BME280;25059;52.132;21.062;2023-02-11T16:02:32;100801.53;;;3.16;100.00
39341;BME280;25059;52.132;21.062;2023-02-11T16:08:20;100794.63;;;3.15;100.00
39341;BME280;25059;52.132;21.062;2023-02-11T16:11:17;100801.53;;;3.13;100.00
39341;BME280;25059;52.132;21.062;2023-02-11T16:14:27;100803.28;;;3.12;100.00
39341;BME280;25059;52.132;21.062;2023-02-11T16:20:00;100810.19;;;3.19;100.00
39341;BME280;25059;52.132;21.062;2023-02-11T16:22:46;100814.53;;;3.22;100.00
39341;BME280;25059;52.132;21.062;2023-02-11T16:25:34;100818.84;;;3.23;100.00
39341;BME280;25059;52.132;21.062;2023-02-11T16:28:18;100824.03;;;3.23;100.00
39341;BME280;25059;52.132;21.062;2023-02-11T16:31:04;100818.00;;;3.21;100.00
39341;BME280;25059;52.132;21.062;2023-02-11T16:33:49;100829.25;;;3.23;100.00
39341;BME280;25059;52.132;21.062;2023-02-11T16:36:33;100835.31;;;3.23;100.00
39341;BME280;25059;52.132;21.062;2023-02-11T16:39:19;100835.28;;;3.25;100.00
39341;BME280;25059;52.132;21.062;2023-02-11T16:42:05;100845.69;;;3.34;100.00